Terminal Aerodrome Forecast
Issued by NWS

Home | Current Version | Previous Version | Graphics & Text | Print | Product List | Glossary On
Versions: 1 2 3 4 5 6 7 8 9 10 11 12 13 14 15 16 17 18 19 20 21 22 23 24
988
FTUS43 KABR 241100 AAB
TAFMBG
TAF AMD
KMBG 241100Z 2411/2506 02006G16KT P6SM VCSH OVC006
     FM241300 33014KT P6SM OVC015
     FM241600 33016G25KT P6SM BKN040
     FM250200 01010KT P6SM BKN030=

USA.gov is the U.S. government's official web portal to all federal, state and local government web resources and services.